sensor_id;sensor_type;location;lat;lon;timestamp;temperature;humidity
44671;DHT22;48397;53.016;-2.260;2023-07-02T00:06:19;13.00;99.90
44671;DHT22;48397;53.016;-2.260;2023-07-02T00:08:48;12.90;99.90
44671;DHT22;48397;53.016;-2.260;2023-07-02T00:13:44;12.90;99.90
44671;DHT22;48397;53.016;-2.260;2023-07-02T00:23:40;12.80;99.90
44671;DHT22;48397;53.016;-2.260;2023-07-02T00:26:08;12.80;99.90
44671;DHT22;48397;53.016;-2.260;2023-07-02T00:33:36;12.80;99.90
44671;DHT22;48397;53.016;-2.260;2023-07-02T00:36:03;12.70;99.90
44671;DHT22;48397;53.016;-2.260;2023-07-02T00:38:31;12.70;99.90
44671;DHT22;48397;53.016;-2.260;2023-07-02T00:40:59;12.70;99.90
44671;DHT22;48397;53.016;-2.260;2023-07-02T00:45:55;12.70;99.90
44671;DHT22;48397;53.016;-2.260;2023-07-02T00:48:23;9.50;99.90
44671;DHT22;48397;53.016;-2.260;2023-07-02T00:50:51;12.60;99.90
44671;DHT22;48397;53.016;-2.260;2023-07-02T00:58:16;12.30;99.90
44671;DHT22;48397;53.016;-2.260;2023-07-02T01:00:44;12.30;99.90
44671;DHT22;48397;53.016;-2.260;2023-07-02T01:03:13;12.20;99.90
44671;DHT22;48397;53.016;-2.260;2023-07-02T01:08:09;12.20;99.90
44671;DHT22;48397;53.016;-2.260;2023-07-02T01:10:40;12.10;99.90
44671;DHT22;48397;53.016;-2.260;2023-07-02T01:13:14;12.10;99.90
44671;DHT22;48397;53.016;-2.260;2023-07-02T01:18:13;12.00;99.90
44671;DHT22;48397;53.016;-2.260;2023-07-02T01:20:43;12.00;99.90
44671;DHT22;48397;53.016;-2.260;2023-07-02T01:25:39;12.00;99.90
44671;DHT22;48397;53.016;-2.260;2023-07-02T01:28:07;11.90;99.90
44671;DHT22;48397;53.016;-2.260;2023-07-02T01:30:35;11.90;99.90
44671;DHT22;48397;53.016;-2.260;2023-07-02T01:35:39;11.90;99.90
44671;DHT22;48397;53.016;-2.260;2023-07-02T01:40:38;11.90;99.90
44671;DHT22;48397;53.016;-2.260;2023-07-02T01:50:31;11.90;99.90
44671;DHT22;48397;53.016;-2.260;2023-07-02T01:55:30;12.00;99.90
44671;DHT22;48397;53.016;-2.260;2023-07-02T01:57:57;12.00;99.90
44671;DHT22;48397;53.016;-2.260;2023-07-02T02:00:25;12.00;99.90
44671;DHT22;48397;53.016;-2.260;2023-07-02T02:07:50;12.00;99.90
44671;DHT22;48397;53.016;-2.260;2023-07-02T02:10:17;12.00;99.90
44671;DHT22;48397;53.016;-2.260;2023-07-02T02:15:14;12.00;99.90
44671;DHT22;48397;53.016;-2.260;2023-07-02T02:17:42;11.90;99.90
44671;DHT22;48397;53.016;-2.260;2023-07-02T02:20:11;12.00;99.90
44671;DHT22;48397;53.016;-2.260;2023-07-02T02:22:39;12.00;99.90
44671;DHT22;48397;53.016;-2.260;2023-07-02T02:27:35;12.00;99.90
44671;DHT22;48397;53.016;-2.260;2023-07-02T02:30:04;12.00;99.90
44671;DHT22;48397;53.016;-2.260;2023-07-02T02:32:34;12.00;99.90
44671;DHT22;48397;53.016;-2.260;2023-07-02T02:35:03;12.00;99.90
44671;DHT22;48397;53.016;-2.260;2023-07-02T02:37:34;11.90;99.90
44671;DHT22;48397;53.016;-2.260;2023-07-02T02:42:33;11.80;99.90
44671;DHT22;48397;53.016;-2.260;2023-07-02T02:45:02;11.80;99.90
44671;DHT22;48397;53.016;-2.260;2023-07-02T02:47:30;11.80;99.90
44671;DHT22;48397;53.016;-2.260;2023-07-02T02:49:59;11.80;99.90
44671;DHT22;48397;53.016;-2.260;2023-07-02T02:52:27;11.70;99.90
44671;DHT22;48397;53.016;-2.260;2023-07-02T02:57:23;11.60;99.90
44671;DHT22;48397;53.016;-2.260;2023-07-02T02:59:51;11.60;99.90
44671;DHT22;48397;53.016;-2.260;2023-07-02T03:04:47;11.50;99.90
44671;DHT22;48397;53.016;-2.260;2023-07-02T03:07:17;11.10;99.90
44671;DHT22;48397;53.016;-2.260;2023-07-02T03:09:44;11.50;99.90
44671;DHT22;48397;53.016;-2.260;2023-07-02T03:12:12;11.50;99.90
44671;DHT22;48397;53.016;-2.260;2023-07-02T03:14:40;11.50;99.90
44671;DHT22;48397;53.016;-2.260;2023-07-02T03:19:36;11.40;99.90
44671;DHT22;48397;53.016;-2.260;2023-07-02T03:22:05;11.40;99.90
44671;DHT22;48397;53.016;-2.260;2023-07-02T03:27:01;11.30;99.90
44671;DHT22;48397;53.016;-2.260;2023-07-02T03:31:57;11.20;99.90
44671;DHT22;48397;53.016;-2.260;2023-07-02T03:34:25;11.30;99.90
44671;DHT22;48397;53.016;-2.260;2023-07-02T03:39:20;11.10;99.90
44671;DHT22;48397;53.016;-2.260;2023-07-02T03:44:18;10.80;99.90
44671;DHT22;48397;53.016;-2.260;2023-07-02T03:46:47;10.80;99.90
44671;DHT22;48397;53.016;-2.260;2023-07-02T03:49:18;10.60;99.90
44671;DHT22;48397;53.016;-2.260;2023-07-02T03:51:46;10.60;99.90
44671;DHT22;48397;53.016;-2.260;2023-07-02T03:54:13;10.60;99.90
44671;DHT22;48397;53.016;-2.260;2023-07-02T03:59:09;10.50;99.90
44671;DHT22;48397;53.016;-2.260;2023-07-02T04:09:01;10.40;99.90
44671;DHT22;48397;53.016;-2.260;2023-07-02T04:11:29;10.40;99.90
44671;DHT22;48397;53.016;-2.260;2023-07-02T04:13:56;10.40;99.90
44671;DHT22;48397;53.016;-2.260;2023-07-02T04:21:21;10.40;99.90
44671;DHT22;48397;53.016;-2.260;2023-07-02T04:23:48;10.50;99.90
44671;DHT22;48397;53.016;-2.260;2023-07-02T04:26:17;10.50;99.90
44671;DHT22;48397;53.016;-2.260;2023-07-02T04:29:05;10.60;99.90
44671;DHT22;48397;53.016;-2.260;2023-07-02T04:31:33;10.60;99.90
44671;DHT22;48397;53.016;-2.260;2023-07-02T04:38:58;10.70;99.90
44671;DHT22;48397;53.016;-2.260;2023-07-02T04:43:54;10.70;99.90
44671;DHT22;48397;53.016;-2.260;2023-07-02T04:51:20;10.70;99.90
44671;DHT22;48397;53.016;-2.260;2023-07-02T04:53:48;10.70;99.90
44671;DHT22;48397;53.016;-2.260;2023-07-02T04:58:44;10.70;99.90
44671;DHT22;48397;53.016;-2.260;2023-07-02T05:01:12;10.70;99.90
44671;DHT22;48397;53.016;-2.260;2023-07-02T05:08:40;10.90;99.90
44671;DHT22;48397;53.016;-2.260;2023-07-02T05:13:38;11.10;99.90
44671;DHT22;48397;53.016;-2.260;2023-07-02T05:16:06;11.20;99.90
44671;DHT22;48397;53.016;-2.260;2023-07-02T05:18:34;11.30;99.90
44671;DHT22;48397;53.016;-2.260;2023-07-02T05:30:54;11.80;99.90
44671;DHT22;48397;53.016;-2.260;2023-07-02T05:33:22;11.90;99.90
44671;DHT22;48397;53.016;-2.260;2023-07-02T05:35:49;12.10;99.90
44671;DHT22;48397;53.016;-2.260;2023-07-02T05:40:46;12.40;99.90
44671;DHT22;48397;53.016;-2.260;2023-07-02T05:43:14;12.50;99.90
44671;DHT22;48397;53.016;-2.260;2023-07-02T05:48:10;12.70;99.90
44671;DHT22;48397;53.016;-2.260;2023-07-02T05:53:06;12.70;99.90
44671;DHT22;48397;53.016;-2.260;2023-07-02T05:58:04;12.70;99.90
44671;DHT22;48397;53.016;-2.260;2023-07-02T06:00:32;12.70;99.90
44671;DHT22;48397;53.016;-2.260;2023-07-02T06:03:00;12.70;99.90
44671;DHT22;48397;53.016;-2.260;2023-07-02T06:10:25;12.80;99.90
44671;DHT22;48397;53.016;-2.260;2023-07-02T06:15:20;12.90;99.90
44671;DHT22;48397;53.016;-2.260;2023-07-02T06:20:16;13.00;99.90
44671;DHT22;48397;53.016;-2.260;2023-07-02T06:22:44;12.90;99.90
44671;DHT22;48397;53.016;-2.260;2023-07-02T06:27:40;12.80;99.90
44671;DHT22;48397;53.016;-2.260;2023-07-02T06:32:35;12.70;99.90
44671;DHT22;48397;53.016;-2.260;2023-07-02T06:37:33;12.80;99.90
44671;DHT22;48397;53.016;-2.260;2023-07-02T06:42:29;13.00;99.90
44671;DHT22;48397;53.016;-2.260;2023-07-02T06:47:25;13.10;99.90
44671;DHT22;48397;53.016;-2.260;2023-07-02T06:49:53;13.10;99.90
44671;DHT22;48397;53.016;-2.260;2023-07-02T06:52:20;13.20;99.90
44671;DHT22;48397;53.016;-2.260;2023-07-02T06:57:16;13.30;99.90
44671;DHT22;48397;53.016;-2.260;2023-07-02T07:02:14;13.30;99.90
44671;DHT22;48397;53.016;-2.260;2023-07-02T07:04:41;13.50;99.90
44671;DHT22;48397;53.016;-2.260;2023-07-02T07:09:37;13.60;99.90
44671;DHT22;48397;53.016;-2.260;2023-07-02T07:12:06;13.70;99.90
44671;DHT22;48397;53.016;-2.260;2023-07-02T07:14:33;13.80;99.90
44671;DHT22;48397;53.016;-2.260;2023-07-02T07:17:01;14.00;99.90
44671;DHT22;48397;53.016;-2.260;2023-07-02T07:19:29;14.10;99.90
44671;DHT22;48397;53.016;-2.260;2023-07-02T07:26:53;14.40;99.90
44671;DHT22;48397;53.016;-2.260;2023-07-02T07:29:22;14.40;99.90
44671;DHT22;48397;53.016;-2.260;2023-07-02T07:31:50;14.50;99.90
44671;DHT22;48397;53.016;-2.260;2023-07-02T07:36:45;14.60;99.90
44671;DHT22;48397;53.016;-2.260;2023-07-02T07:39:13;14.80;99.90
44671;DHT22;48397;53.016;-2.260;2023-07-02T07:41:41;15.00;99.90
44671;DHT22;48397;53.016;-2.260;2023-07-02T07:44:10;15.10;99.90
44671;DHT22;48397;53.016;-2.260;2023-07-02T07:46:37;15.20;99.90
44671;DHT22;48397;53.016;-2.260;2023-07-02T07:49:06;15.40;99.90
44671;DHT22;48397;53.016;-2.260;2023-07-02T07:51:33;15.40;99.90
44671;DHT22;48397;53.016;-2.260;2023-07-02T07:54:03;15.40;99.90
44671;DHT22;48397;53.016;-2.260;2023-07-02T07:56:31;15.40;99.90
44671;DHT22;48397;53.016;-2.260;2023-07-02T07:58:59;15.40;99.90
44671;DHT22;48397;53.016;-2.260;2023-07-02T08:01:26;15.50;99.90
44671;DHT22;48397;53.016;-2.260;2023-07-02T08:03:55;15.60;99.90
44671;DHT22;48397;53.016;-2.260;2023-07-02T08:06:24;15.50;99.90
44671;DHT22;48397;53.016;-2.260;2023-07-02T08:08:51;15.60;99.90
44671;DHT22;48397;53.016;-2.260;2023-07-02T08:11:19;15.60;99.90
44671;DHT22;48397;53.016;-2.260;2023-07-02T08:13:47;15.50;99.90
44671;DHT22;48397;53.016;-2.260;2023-07-02T08:16:15;15.50;99.90
44671;DHT22;48397;53.016;-2.260;2023-07-02T08:18:43;15.50;99.90
44671;DHT22;48397;53.016;-2.260;2023-07-02T08:23:38;15.60;99.90
44671;DHT22;48397;53.016;-2.260;2023-07-02T08:26:06;15.80;99.90
44671;DHT22;48397;53.016;-2.260;2023-07-02T08:31:02;16.10;99.90
44671;DHT22;48397;53.016;-2.260;2023-07-02T08:33:30;16.20;99.90
44671;DHT22;48397;53.016;-2.260;2023-07-02T08:35:57;16.10;99.90
44671;DHT22;48397;53.016;-2.260;2023-07-02T08:38:25;16.00;99.90
44671;DHT22;48397;53.016;-2.260;2023-07-02T08:43:21;15.80;99.90
44671;DHT22;48397;53.016;-2.260;2023-07-02T08:45:49;15.80;99.90
44671;DHT22;48397;53.016;-2.260;2023-07-02T08:48:17;15.70;99.90
44671;DHT22;48397;53.016;-2.260;2023-07-02T08:50:50;15.80;99.90
44671;DHT22;48397;53.016;-2.260;2023-07-02T08:55:53;15.70;99.90
44671;DHT22;48397;53.016;-2.260;2023-07-02T08:58:20;15.70;99.90
44671;DHT22;48397;53.016;-2.260;2023-07-02T09:01:08;15.70;99.90
44671;DHT22;48397;53.016;-2.260;2023-07-02T09:03:37;15.80;99.90
44671;DHT22;48397;53.016;-2.260;2023-07-02T09:06:07;16.00;99.90
44671;DHT22;48397;53.016;-2.260;2023-07-02T09:08:36;16.20;99.90
44671;DHT22;48397;53.016;-2.260;2023-07-02T09:11:07;16.30;99.90
44671;DHT22;48397;53.016;-2.260;2023-07-02T09:13:52;16.50;99.90
44671;DHT22;48397;53.016;-2.260;2023-07-02T09:16:31;16.60;99.90
44671;DHT22;48397;53.016;-2.260;2023-07-02T09:19:07;16.70;99.90
44671;DHT22;48397;53.016;-2.260;2023-07-02T09:21:43;16.80;99.90
44671;DHT22;48397;53.016;-2.260;2023-07-02T09:26:50;16.80;99.90
44671;DHT22;48397;53.016;-2.260;2023-07-02T09:29:26;16.80;99.90
44671;DHT22;48397;53.016;-2.260;2023-07-02T09:31:59;17.00;99.90
44671;DHT22;48397;53.016;-2.260;2023-07-02T09:34:31;17.10;99.90
44671;DHT22;48397;53.016;-2.260;2023-07-02T09:37:01;17.20;99.90
44671;DHT22;48397;53.016;-2.260;2023-07-02T09:39:31;17.30;99.90
44671;DHT22;48397;53.016;-2.260;2023-07-02T09:42:05;17.30;99.90
44671;DHT22;48397;53.016;-2.260;2023-07-02T09:44:34;17.20;99.90
44671;DHT22;48397;53.016;-2.260;2023-07-02T09:47:09;17.10;99.90
44671;DHT22;48397;53.016;-2.260;2023-07-02T09:49:39;17.10;99.90
44671;DHT22;48397;53.016;-2.260;2023-07-02T09:52:10;17.00;99.90
44671;DHT22;48397;53.016;-2.260;2023-07-02T09:54:38;17.10;99.90
44671;DHT22;48397;53.016;-2.260;2023-07-02T09:57:06;17.30;99.90
44671;DHT22;48397;53.016;-2.260;2023-07-02T09:59:35;17.40;99.90
44671;DHT22;48397;53.016;-2.260;2023-07-02T10:02:03;17.50;99.90
44671;DHT22;48397;53.016;-2.260;2023-07-02T10:04:47;17.70;99.90
44671;DHT22;48397;53.016;-2.260;2023-07-02T10:07:30;17.60;99.90
44671;DHT22;48397;53.016;-2.260;2023-07-02T10:09:58;17.60;99.90
44671;DHT22;48397;53.016;-2.260;2023-07-02T10:14:58;17.60;99.90
44671;DHT22;48397;53.016;-2.260;2023-07-02T10:17:28;17.70;99.90
44671;DHT22;48397;53.016;-2.260;2023-07-02T10:19:58;17.60;99.90
44671;DHT22;48397;53.016;-2.260;2023-07-02T10:22:27;17.60;99.90
44671;DHT22;48397;53.016;-2.260;2023-07-02T10:24:56;17.60;99.90
44671;DHT22;48397;53.016;-2.260;2023-07-02T10:27:37;17.70;99.90
44671;DHT22;48397;53.016;-2.260;2023-07-02T10:30:07;17.70;99.90
44671;DHT22;48397;53.016;-2.260;2023-07-02T10:32:37;17.80;99.90
44671;DHT22;48397;53.016;-2.260;2023-07-02T10:35:18;17.70;99.90
44671;DHT22;48397;53.016;-2.260;2023-07-02T10:37:46;17.60;99.90
44671;DHT22;48397;53.016;-2.260;2023-07-02T10:40:14;17.50;99.90
44671;DHT22;48397;53.016;-2.260;2023-07-02T10:42:52;17.60;99.90
44671;DHT22;48397;53.016;-2.260;2023-07-02T10:45:21;17.70;99.90
44671;DHT22;48397;53.016;-2.260;2023-07-02T10:47:58;17.70;99.90
44671;DHT22;48397;53.016;-2.260;2023-07-02T10:50:26;18.10;99.90
44671;DHT22;48397;53.016;-2.260;2023-07-02T10:52:54;18.50;99.90
44671;DHT22;48397;53.016;-2.260;2023-07-02T10:55:22;18.40;99.90
44671;DHT22;48397;53.016;-2.260;2023-07-02T10:58:05;18.50;99.90
44671;DHT22;48397;53.016;-2.260;2023-07-02T11:00:43;18.50;99.90
44671;DHT22;48397;53.016;-2.260;2023-07-02T11:03:25;18.30;99.90
44671;DHT22;48397;53.016;-2.260;2023-07-02T11:05:53;18.30;99.90
44671;DHT22;48397;53.016;-2.260;2023-07-02T11:11:04;18.70;99.90
44671;DHT22;48397;53.016;-2.260;2023-07-02T11:13:32;18.90;99.90
44671;DHT22;48397;53.016;-2.260;2023-07-02T11:16:00;19.10;99.90
44671;DHT22;48397;53.016;-2.260;2023-07-02T11:18:30;19.20;99.90
44671;DHT22;48397;53.016;-2.260;2023-07-02T11:21:09;19.30;99.70
44671;DHT22;48397;53.016;-2.260;2023-07-02T11:23:38;19.10;99.90
44671;DHT22;48397;53.016;-2.260;2023-07-02T11:26:06;19.10;99.90
44671;DHT22;48397;53.016;-2.260;2023-07-02T11:28:34;19.00;99.90
44671;DHT22;48397;53.016;-2.260;2023-07-02T11:31:05;18.70;99.90
44671;DHT22;48397;53.016;-2.260;2023-07-02T11:33:39;18.50;99.90
44671;DHT22;48397;53.016;-2.260;2023-07-02T11:36:20;18.40;99.90
44671;DHT22;48397;53.016;-2.260;2023-07-02T11:38:49;18.30;99.90
44671;DHT22;48397;53.016;-2.260;2023-07-02T11:41:17;18.40;99.70
44671;DHT22;48397;53.016;-2.260;2023-07-02T11:43:48;18.50;99.90
44671;DHT22;48397;53.016;-2.260;2023-07-02T11:46:16;18.70;99.60
44671;DHT22;48397;53.016;-2.260;2023-07-02T11:48:43;18.90;98.80
44671;DHT22;48397;53.016;-2.260;2023-07-02T11:53:40;18.70;98.80
44671;DHT22;48397;53.016;-2.260;2023-07-02T11:56:08;18.70;98.80
44671;DHT22;48397;53.016;-2.260;2023-07-02T11:58:35;18.70;99.30
44671;DHT22;48397;53.016;-2.260;2023-07-02T12:03:32;18.70;98.30
44671;DHT22;48397;53.016;-2.260;2023-07-02T12:06:00;18.70;98.00
44671;DHT22;48397;53.016;-2.260;2023-07-02T12:08:28;18.80;98.30
44671;DHT22;48397;53.016;-2.260;2023-07-02T12:10:56;18.70;98.20
44671;DHT22;48397;53.016;-2.260;2023-07-02T12:13:23;18.70;99.00
44671;DHT22;48397;53.016;-2.260;2023-07-02T12:15:55;18.70;98.50
44671;DHT22;48397;53.016;-2.260;2023-07-02T12:20:51;18.70;97.80
44671;DHT22;48397;53.016;-2.260;2023-07-02T12:23:20;18.70;97.80
44671;DHT22;48397;53.016;-2.260;2023-07-02T12:28:16;18.70;98.40
44671;DHT22;48397;53.016;-2.260;2023-07-02T12:30:44;18.70;98.10
44671;DHT22;48397;53.016;-2.260;2023-07-02T12:33:12;18.60;98.80
44671;DHT22;48397;53.016;-2.260;2023-07-02T12:38:08;18.30;98.40
44671;DHT22;48397;53.016;-2.260;2023-07-02T12:40:36;18.20;98.50
44671;DHT22;48397;53.016;-2.260;2023-07-02T12:43:04;18.10;98.70
44671;DHT22;48397;53.016;-2.260;2023-07-02T12:45:31;18.20;99.30
44671;DHT22;48397;53.016;-2.260;2023-07-02T12:47:59;18.20;99.00
44671;DHT22;48397;53.016;-2.260;2023-07-02T12:52:56;18.30;98.10
44671;DHT22;48397;53.016;-2.260;2023-07-02T12:55:23;18.40;97.90
44671;DHT22;48397;53.016;-2.260;2023-07-02T12:57:51;18.30;98.30
44671;DHT22;48397;53.016;-2.260;2023-07-02T13:00:19;18.30;98.10
44671;DHT22;48397;53.016;-2.260;2023-07-02T13:02:48;18.20;98.30
44671;DHT22;48397;53.016;-2.260;2023-07-02T13:05:31;18.20;97.90
44671;DHT22;48397;53.016;-2.260;2023-07-02T13:07:59;18.20;97.60
44671;DHT22;48397;53.016;-2.260;2023-07-02T13:10:29;18.10;98.00
44671;DHT22;48397;53.016;-2.260;2023-07-02T13:12:57;18.10;97.70
44671;DHT22;48397;53.016;-2.260;2023-07-02T13:15:36;18.00;98.10
44671;DHT22;48397;53.016;-2.260;2023-07-02T13:18:04;18.10;98.40
44671;DHT22;48397;53.016;-2.260;2023-07-02T13:20:32;18.10;98.50
44671;DHT22;48397;53.016;-2.260;2023-07-02T13:23:00;18.20;98.60
44671;DHT22;48397;53.016;-2.260;2023-07-02T13:25:28;18.20;98.50
44671;DHT22;48397;53.016;-2.260;2023-07-02T13:27:55;18.30;98.00
44671;DHT22;48397;53.016;-2.260;2023-07-02T13:30:23;18.60;97.50
44671;DHT22;48397;53.016;-2.260;2023-07-02T13:32:52;18.80;98.00
44671;DHT22;48397;53.016;-2.260;2023-07-02T13:35:20;18.90;97.80
44671;DHT22;48397;53.016;-2.260;2023-07-02T13:37:49;19.00;97.00
44671;DHT22;48397;53.016;-2.260;2023-07-02T13:40:17;19.10;97.30
44671;DHT22;48397;53.016;-2.260;2023-07-02T13:42:45;19.30;98.10
44671;DHT22;48397;53.016;-2.260;2023-07-02T13:50:09;20.90;94.40
44671;DHT22;48397;53.016;-2.260;2023-07-02T13:52:37;21.20;93.30
44671;DHT22;48397;53.016;-2.260;2023-07-02T13:55:05;21.40;92.90
44671;DHT22;48397;53.016;-2.260;2023-07-02T13:57:35;21.40;92.50
44671;DHT22;48397;53.016;-2.260;2023-07-02T14:00:03;21.50;92.90
44671;DHT22;48397;53.016;-2.260;2023-07-02T14:02:32;20.60;92.10
44671;DHT22;48397;53.016;-2.260;2023-07-02T14:05:00;20.00;92.90
44671;DHT22;48397;53.016;-2.260;2023-07-02T14:07:28;20.00;93.10
44671;DHT22;48397;53.016;-2.260;2023-07-02T14:09:55;19.50;93.30
44671;DHT22;48397;53.016;-2.260;2023-07-02T14:12:23;19.30;94.00
44671;DHT22;48397;53.016;-2.260;2023-07-02T14:14:51;18.70;94.10
44671;DHT22;48397;53.016;-2.260;2023-07-02T14:19:46;18.30;95.00
44671;DHT22;48397;53.016;-2.260;2023-07-02T14:22:14;18.40;95.10
44671;DHT22;48397;53.016;-2.260;2023-07-02T14:24:42;18.40;96.10
44671;DHT22;48397;53.016;-2.260;2023-07-02T14:27:10;18.60;96.70
44671;DHT22;48397;53.016;-2.260;2023-07-02T14:29:37;18.80;97.10
44671;DHT22;48397;53.016;-2.260;2023-07-02T14:32:06;19.20;96.80
44671;DHT22;48397;53.016;-2.260;2023-07-02T14:34:35;19.60;96.10
44671;DHT22;48397;53.016;-2.260;2023-07-02T14:39:31;20.80;94.50
44671;DHT22;48397;53.016;-2.260;2023-07-02T14:44:27;21.20;92.70
44671;DHT22;48397;53.016;-2.260;2023-07-02T14:46:55;23.50;93.30
44671;DHT22;48397;53.016;-2.260;2023-07-02T14:49:23;20.80;93.20
44671;DHT22;48397;53.016;-2.260;2023-07-02T14:51:51;21.30;92.70
44671;DHT22;48397;53.016;-2.260;2023-07-02T14:54:19;18.70;91.90
44671;DHT22;48397;53.016;-2.260;2023-07-02T14:56:47;21.90;91.70
44671;DHT22;48397;53.016;-2.260;2023-07-02T14:59:15;21.90;91.60
44671;DHT22;48397;53.016;-2.260;2023-07-02T15:01:43;21.40;91.10
44671;DHT22;48397;53.016;-2.260;2023-07-02T15:04:12;20.90;91.50
44671;DHT22;48397;53.016;-2.260;2023-07-02T15:06:41;20.50;92.10
44671;DHT22;48397;53.016;-2.260;2023-07-02T15:09:09;20.10;92.40
44671;DHT22;48397;53.016;-2.260;2023-07-02T15:11:36;20.10;92.60
44671;DHT22;48397;53.016;-2.260;2023-07-02T15:14:04;20.00;92.40
44671;DHT22;48397;53.016;-2.260;2023-07-02T15:16:33;19.30;92.20
44671;DHT22;48397;53.016;-2.260;2023-07-02T15:19:01;19.00;92.70
44671;DHT22;48397;53.016;-2.260;2023-07-02T15:21:30;18.80;93.50
44671;DHT22;48397;53.016;-2.260;2023-07-02T15:23:58;18.70;93.70
44671;DHT22;48397;53.016;-2.260;2023-07-02T15:26:26;15.40;93.10
44671;DHT22;48397;53.016;-2.260;2023-07-02T15:28:54;19.10;94.10
44671;DHT22;48397;53.016;-2.260;2023-07-02T15:31:21;19.10;94.30
44671;DHT22;48397;53.016;-2.260;2023-07-02T15:33:49;20.10;93.90
44671;DHT22;48397;53.016;-2.260;2023-07-02T15:36:19;20.80;93.00
44671;DHT22;48397;53.016;-2.260;2023-07-02T15:38:49;20.90;92.90
44671;DHT22;48397;53.016;-2.260;2023-07-02T15:41:18;21.00;92.90
44671;DHT22;48397;53.016;-2.260;2023-07-02T15:43:49;21.10;92.60
44671;DHT22;48397;53.016;-2.260;2023-07-02T15:46:19;21.60;92.30
44671;DHT22;48397;53.016;-2.260;2023-07-02T15:48:47;21.70;91.80
44671;DHT22;48397;53.016;-2.260;2023-07-02T15:51:18;21.40;91.40
44671;DHT22;48397;53.016;-2.260;2023-07-02T15:53:45;21.30;91.70
44671;DHT22;48397;53.016;-2.260;2023-07-02T15:56:13;20.90;91.50
44671;DHT22;48397;53.016;-2.260;2023-07-02T15:58:40;20.50;91.60
44671;DHT22;48397;53.016;-2.260;2023-07-02T16:01:16;20.00;91.90
44671;DHT22;48397;53.016;-2.260;2023-07-02T16:03:44;19.70;92.20
44671;DHT22;48397;53.016;-2.260;2023-07-02T16:06:14;19.30;93.10
44671;DHT22;48397;53.016;-2.260;2023-07-02T16:08:43;19.30;93.00
44671;DHT22;48397;53.016;-2.260;2023-07-02T16:11:12;19.20;93.70
44671;DHT22;48397;53.016;-2.260;2023-07-02T16:13:42;19.30;93.70
44671;DHT22;48397;53.016;-2.260;2023-07-02T16:16:10;19.10;94.20
44671;DHT22;48397;53.016;-2.260;2023-07-02T16:18:38;18.90;94.80
44671;DHT22;48397;53.016;-2.260;2023-07-02T16:21:06;18.70;94.80
44671;DHT22;48397;53.016;-2.260;2023-07-02T16:23:34;18.50;95.20
44671;DHT22;48397;53.016;-2.260;2023-07-02T16:26:05;18.50;95.30
44671;DHT22;48397;53.016;-2.260;2023-07-02T16:28:34;18.40;96.00
44671;DHT22;48397;53.016;-2.260;2023-07-02T16:31:02;18.40;96.20
44671;DHT22;48397;53.016;-2.260;2023-07-02T16:33:31;18.60;96.30
44671;DHT22;48397;53.016;-2.260;2023-07-02T16:36:07;18.80;96.20
44671;DHT22;48397;53.016;-2.260;2023-07-02T16:38:36;18.80;96.40
44671;DHT22;48397;53.016;-2.260;2023-07-02T16:41:05;18.80;96.50
44671;DHT22;48397;53.016;-2.260;2023-07-02T16:43:34;18.80;96.70
44671;DHT22;48397;53.016;-2.260;2023-07-02T16:46:03;19.00;95.90
44671;DHT22;48397;53.016;-2.260;2023-07-02T16:48:31;18.90;95.90
44671;DHT22;48397;53.016;-2.260;2023-07-02T16:51:00;18.90;95.90
44671;DHT22;48397;53.016;-2.260;2023-07-02T16:53:29;18.80;95.90
44671;DHT22;48397;53.016;-2.260;2023-07-02T16:56:00;18.80;96.30
44671;DHT22;48397;53.016;-2.260;2023-07-02T16:58:29;18.80;96.30
44671;DHT22;48397;53.016;-2.260;2023-07-02T17:01:09;18.70;96.60
44671;DHT22;48397;53.016;-2.260;2023-07-02T17:03:38;18.50;95.90
44671;DHT22;48397;53.016;-2.260;2023-07-02T17:06:06;18.50;96.20
44671;DHT22;48397;53.016;-2.260;2023-07-02T17:08:40;18.40;96.50
44671;DHT22;48397;53.016;-2.260;2023-07-02T17:11:10;18.40;96.60
44671;DHT22;48397;53.016;-2.260;2023-07-02T17:13:39;18.30;97.10
44671;DHT22;48397;53.016;-2.260;2023-07-02T17:16:09;18.30;97.40
44671;DHT22;48397;53.016;-2.260;2023-07-02T17:18:37;18.20;97.70
44671;DHT22;48397;53.016;-2.260;2023-07-02T17:21:05;18.30;97.90
44671;DHT22;48397;53.016;-2.260;2023-07-02T17:23:33;18.30;98.30
44671;DHT22;48397;53.016;-2.260;2023-07-02T17:26:02;18.30;98.50
44671;DHT22;48397;53.016;-2.260;2023-07-02T17:28:35;18.30;99.10
44671;DHT22;48397;53.016;-2.260;2023-07-02T17:31:03;18.20;99.20
44671;DHT22;48397;53.016;-2.260;2023-07-02T17:33:35;17.80;99.90
44671;DHT22;48397;53.016;-2.260;2023-07-02T17:36:04;17.80;99.90
44671;DHT22;48397;53.016;-2.260;2023-07-02T17:38:32;17.70;99.90
44671;DHT22;48397;53.016;-2.260;2023-07-02T17:41:01;17.60;99.90
44671;DHT22;48397;53.016;-2.260;2023-07-02T17:43:29;17.60;99.90
44671;DHT22;48397;53.016;-2.260;2023-07-02T17:45:57;17.50;99.90
44671;DHT22;48397;53.016;-2.260;2023-07-02T17:48:25;17.50;99.90
44671;DHT22;48397;53.016;-2.260;2023-07-02T17:50:58;17.50;99.90
44671;DHT22;48397;53.016;-2.260;2023-07-02T17:53:27;17.60;99.90
44671;DHT22;48397;53.016;-2.260;2023-07-02T17:55:57;17.80;99.90
44671;DHT22;48397;53.016;-2.260;2023-07-02T17:58:25;17.90;99.90
44671;DHT22;48397;53.016;-2.260;2023-07-02T18:00:53;18.00;99.90
44671;DHT22;48397;53.016;-2.260;2023-07-02T18:03:21;18.00;99.90
44671;DHT22;48397;53.016;-2.260;2023-07-02T18:05:49;18.00;99.90
44671;DHT22;48397;53.016;-2.260;2023-07-02T18:08:19;17.90;99.90
44671;DHT22;48397;53.016;-2.260;2023-07-02T18:10:50;17.80;99.90
44671;DHT22;48397;53.016;-2.260;2023-07-02T18:13:19;17.80;99.90
44671;DHT22;48397;53.016;-2.260;2023-07-02T18:15:50;17.70;99.90
44671;DHT22;48397;53.016;-2.260;2023-07-02T18:18:19;17.50;99.90
44671;DHT22;48397;53.016;-2.260;2023-07-02T18:20:48;17.50;99.90
44671;DHT22;48397;53.016;-2.260;2023-07-02T18:23:17;17.30;99.90
44671;DHT22;48397;53.016;-2.260;2023-07-02T18:25:45;17.30;99.90
44671;DHT22;48397;53.016;-2.260;2023-07-02T18:28:13;17.30;99.90
44671;DHT22;48397;53.016;-2.260;2023-07-02T18:30:43;17.20;99.90
44671;DHT22;48397;53.016;-2.260;2023-07-02T18:33:11;17.30;99.90
44671;DHT22;48397;53.016;-2.260;2023-07-02T18:35:39;16.60;99.90
44671;DHT22;48397;53.016;-2.260;2023-07-02T18:38:09;17.10;99.90
44671;DHT22;48397;53.016;-2.260;2023-07-02T18:40:37;17.20;99.90
44671;DHT22;48397;53.016;-2.260;2023-07-02T18:43:05;17.10;99.90
44671;DHT22;48397;53.016;-2.260;2023-07-02T18:45:37;17.10;99.90
44671;DHT22;48397;53.016;-2.260;2023-07-02T18:50:41;17.00;99.90
44671;DHT22;48397;53.016;-2.260;2023-07-02T18:53:27;16.90;99.90
44671;DHT22;48397;53.016;-2.260;2023-07-02T18:56:00;16.80;99.90
44671;DHT22;48397;53.016;-2.260;2023-07-02T18:58:30;16.70;99.90
44671;DHT22;48397;53.016;-2.260;2023-07-02T19:00:59;16.60;99.90
44671;DHT22;48397;53.016;-2.260;2023-07-02T19:03:27;16.50;99.90
44671;DHT22;48397;53.016;-2.260;2023-07-02T19:05:54;16.40;99.90
44671;DHT22;48397;53.016;-2.260;2023-07-02T19:08:22;16.30;99.90